createdAt,value
2019-03-11T00:02:42.121Z,95692.53
2019-03-11T00:05:30.148Z,95696.37
2019-03-11T00:08:18.510Z,95696.82
2019-03-11T00:11:07.535Z,95697.63
2019-03-11T00:13:57.081Z,95714.85
2019-03-11T00:16:45.505Z,95717.01
2019-03-11T00:19:34.217Z,95723.88
2019-03-11T00:22:23.217Z,95730.36
2019-03-11T00:25:12.338Z,95734.24
2019-03-11T00:28:00.969Z,95740.72
2019-03-11T00:30:49.795Z,95745.43
2019-03-11T00:33:38.337Z,95752.34
2019-03-11T00:36:27.035Z,95758.81
2019-03-11T00:39:15.849Z,95761.42
2019-03-11T00:42:04.414Z,95756.67
2019-03-11T00:44:52.504Z,95764.82
2019-03-11T00:47:40.740Z,95767.82
2019-03-11T00:50:29.396Z,95767.02
2019-03-11T00:53:18.210Z,95763.55
2019-03-11T00:56:07.279Z,95764.41
2019-03-11T00:58:56.273Z,95771.30
2019-03-11T01:01:44.681Z,95763.55
2019-03-11T01:04:33.410Z,95769.17
2019-03-11T01:07:22.192Z,95765.77
2019-03-11T01:10:11.150Z,95765.34
2019-03-11T01:12:59.476Z,95764.48
2019-03-11T01:15:48.329Z,95767.95
2019-03-11T01:18:36.820Z,95768.84
2019-03-11T01:21:25.453Z,95764.50
2019-03-11T01:24:15.075Z,95770.96
2019-03-11T01:27:03.411Z,95776.55
2019-03-11T01:29:51.807Z,95768.80
2019-03-11T01:32:40.360Z,95776.98
2019-03-11T01:35:28.756Z,95770.11
2019-03-11T01:38:17.550Z,95772.72
2019-03-11T01:41:06.605Z,95775.75
2019-03-11T01:43:55.289Z,95766.70
2019-03-11T01:46:43.331Z,95766.27
2019-03-11T01:49:31.943Z,95755.08
2019-03-11T01:52:20.422Z,95749.04
2019-03-11T01:55:09.191Z,95739.56
2019-03-11T01:57:57.535Z,95737.02
2019-03-11T02:00:46.240Z,95734.86
2019-03-11T02:03:34.579Z,95725.41
2019-03-11T02:06:23.189Z,95727.13
2019-03-11T02:09:13.381Z,95731.03
2019-03-11T02:12:02.136Z,95716.83
2019-03-11T02:14:50.994Z,95726.70
2019-03-11T02:17:39.567Z,95717.66
2019-03-11T02:20:27.558Z,95721.55
2019-03-11T02:23:16.060Z,95721.12
2019-03-11T02:26:05.159Z,95713.81
2019-03-11T02:28:53.681Z,95710.37
2019-03-11T02:31:42.271Z,95705.64
2019-03-11T02:34:32.841Z,95699.62
2019-03-11T02:37:21.588Z,95702.64
2019-03-11T02:40:10.724Z,95691.47
2019-03-11T02:42:59.343Z,95679.86
2019-03-11T02:45:48.151Z,95678.55
2019-03-11T02:48:36.408Z,95675.10
2019-03-11T02:51:24.642Z,95665.64
2019-03-11T02:54:13.768Z,95666.08
2019-03-11T02:57:01.893Z,95650.16
2019-03-11T02:59:50.992Z,95651.04
2019-03-11T03:02:58.470Z,95634.26
2019-03-11T03:05:50.135Z,95643.75
2019-03-11T03:08:38.543Z,95642.00
2019-03-11T03:11:27.474Z,95637.70
2019-03-11T03:14:16.663Z,95633.83
2019-03-11T03:17:05.301Z,95632.53
2019-03-11T03:19:54.045Z,95630.81
2019-03-11T03:22:42.650Z,95629.55
2019-03-11T03:25:34.327Z,95625.68
2019-03-11T03:28:21.340Z,95627.83
2019-03-11T03:31:09.846Z,95623.55
2019-03-11T03:33:58.051Z,95617.08
2019-03-11T03:36:46.109Z,95610.63
2019-03-11T03:39:34.882Z,95614.94
2019-03-11T03:42:23.879Z,95610.64
2019-03-11T03:45:29.789Z,95611.05
2019-03-11T03:48:18.725Z,95610.17
2019-03-11T03:51:06.960Z,95609.73
2019-03-11T03:53:55.727Z,95608.88
2019-03-11T03:56:43.977Z,95619.19
2019-03-11T03:59:33.350Z,95614.91
2019-03-11T04:02:22.511Z,95615.34
2019-03-11T04:05:11.296Z,95611.89
2019-03-11T04:08:00.339Z,95611.90
2019-03-11T04:10:49.525Z,95609.78
2019-03-11T04:13:37.903Z,95606.77
2019-03-11T04:16:26.204Z,95610.22
2019-03-11T04:19:14.805Z,95607.22
2019-03-11T04:22:02.857Z,95605.48
2019-03-11T04:24:51.914Z,95605.05
2019-03-11T04:27:41.123Z,95603.35
2019-03-11T04:30:32.856Z,95605.47
2019-03-11T04:33:21.897Z,95598.58
2019-03-11T04:36:10.332Z,95592.56
2019-03-11T04:38:59.184Z,95589.98
2019-03-11T04:41:48.232Z,95583.54
2019-03-11T04:44:36.632Z,95575.34
2019-03-11T04:47:25.533Z,95574.45
2019-03-11T04:50:14.802Z,95572.73
2019-03-11T04:53:03.448Z,95567.13
2019-03-11T04:55:51.927Z,95567.98
2019-03-11T04:58:40.597Z,95555.05
2019-03-11T05:01:29.575Z,95562.34
2019-03-11T05:04:18.052Z,95567.94
2019-03-11T05:07:06.754Z,95552.84
2019-03-11T05:09:54.950Z,95549.36
2019-03-11T05:12:43.628Z,95543.33
2019-03-11T05:15:32.728Z,95545.91
2019-03-11T05:18:21.317Z,95542.89
2019-03-11T05:21:09.766Z,95526.95
2019-03-11T05:23:58.726Z,95526.09
2019-03-11T05:26:47.394Z,95516.60
2019-03-11T05:29:36.308Z,95512.70
2019-03-11T05:32:24.634Z,95518.70
2019-03-11T05:35:13.342Z,95495.45
2019-03-11T05:38:01.809Z,95501.47
2019-03-11T05:40:50.823Z,95484.67
2019-03-11T05:43:39.830Z,95491.11
2019-03-11T05:46:28.172Z,95488.52
2019-03-11T05:49:17.594Z,95481.20
2019-03-11T05:52:06.233Z,95485.03
2019-03-11T05:54:54.394Z,95479.86
2019-03-11T05:57:43.273Z,95475.52
2019-03-11T06:00:31.950Z,95478.53
2019-03-11T06:03:20.399Z,95462.62
2019-03-11T06:06:08.910Z,95462.18
2019-03-11T06:08:58.195Z,95459.99
2019-03-11T06:11:47.366Z,95438.42
2019-03-11T06:14:36.359Z,95444.04
2019-03-11T06:17:24.959Z,95441.85
2019-03-11T06:20:31.270Z,95437.95
2019-03-11T06:23:20.161Z,95442.27
2019-03-11T06:26:09.001Z,95457.31
2019-03-11T06:28:58.021Z,95449.11
2019-03-11T06:31:46.749Z,95462.84
2019-03-11T06:34:35.269Z,95460.23
2019-03-11T06:37:23.528Z,95486.11
2019-03-11T06:40:12.320Z,95484.39
2019-03-11T06:43:01.395Z,95472.37
2019-03-11T06:45:49.911Z,95481.48
2019-03-11T06:48:38.995Z,95473.78
2019-03-11T06:51:27.233Z,95470.77
2019-03-11T06:54:17.700Z,95473.45
2019-03-11T06:57:06.747Z,95499.39
2019-03-11T06:59:55.614Z,95499.09
2019-03-11T07:02:44.028Z,95502.30
2019-03-11T07:05:33.242Z,95518.72
2019-03-11T07:08:22.099Z,95517.90
2019-03-11T07:11:11.007Z,95523.47
2019-03-11T07:13:59.542Z,95531.58
2019-03-11T07:16:48.316Z,95557.66
2019-03-11T07:19:37.375Z,95527.44
2019-03-11T07:22:25.969Z,95557.17
2019-03-11T07:25:15.161Z,95564.11
2019-03-11T07:28:04.058Z,95571.95
2019-03-11T07:30:53.213Z,95600.45
2019-03-11T07:33:41.956Z,95609.36
2019-03-11T07:36:30.557Z,95593.91
2019-03-11T07:39:19.109Z,95596.88
2019-03-11T07:42:07.950Z,95609.70
2019-03-11T07:44:56.761Z,95622.16
2019-03-11T07:47:45.447Z,95608.92
2019-03-11T07:50:34.354Z,95607.58
2019-03-11T07:53:23.277Z,95616.99
2019-03-11T07:56:12.092Z,95606.70
2019-03-11T07:59:00.564Z,95609.70
2019-03-11T08:01:49.448Z,95614.31
2019-03-11T08:04:37.877Z,95615.67
2019-03-11T08:07:27.620Z,95600.69
2019-03-11T08:10:17.205Z,95587.83
2019-03-11T08:13:07.857Z,95592.95
2019-03-11T08:15:55.929Z,95621.58
2019-03-11T08:18:44.139Z,95613.44
2019-03-11T08:21:33.447Z,95604.39
2019-03-11T08:24:22.561Z,95603.52
2019-03-11T08:27:11.549Z,95613.33
2019-03-11T08:30:00.363Z,95612.41
2019-03-11T08:32:48.897Z,95611.09
2019-03-11T08:35:37.819Z,95617.06
2019-03-11T08:38:26.302Z,95594.43
2019-03-11T08:41:15.187Z,95567.47
2019-03-11T08:44:04.039Z,95582.09
2019-03-11T08:46:52.237Z,95580.84
2019-03-11T08:49:41.336Z,95577.87
2019-03-11T08:52:30.125Z,95568.09
2019-03-11T08:55:18.587Z,95576.22
2019-03-11T08:58:07.507Z,95583.91
2019-03-11T09:00:56.001Z,95585.67
2019-03-11T09:03:44.812Z,95575.88
2019-03-11T09:06:33.783Z,95575.91
2019-03-11T09:09:22.686Z,95571.70
2019-03-11T09:12:11.523Z,95570.95
2019-03-11T09:15:00.320Z,95570.13
2019-03-11T09:17:49.501Z,95580.89
2019-03-11T09:20:38.327Z,95586.06
2019-03-11T09:23:27.520Z,95592.97
2019-03-11T09:26:16.601Z,95593.81
2019-03-11T09:29:05.260Z,95611.41
2019-03-11T09:31:54.123Z,95599.39
2019-03-11T09:34:43.015Z,95595.59
2019-03-11T09:37:31.698Z,95587.95
2019-03-11T09:40:20.446Z,95566.60
2019-03-11T09:43:09.080Z,95571.76
2019-03-11T09:45:58.028Z,95594.48
2019-03-11T09:48:46.710Z,95601.77
2019-03-11T09:51:35.877Z,95604.38
2019-03-11T09:54:24.812Z,95614.34
2019-03-11T09:57:13.300Z,95613.96
2019-03-11T10:00:02.140Z,95632.82
2019-03-11T10:02:52.611Z,95640.08
2019-03-11T10:05:41.220Z,95646.86
2019-03-11T10:08:30.649Z,95654.77
2019-03-11T10:11:18.787Z,95667.91
2019-03-11T10:14:07.114Z,95686.98
2019-03-11T10:16:55.852Z,95698.50
2019-03-11T10:19:44.630Z,95686.41
2019-03-11T10:22:33.334Z,95699.67
2019-03-11T10:25:21.804Z,95696.66
2019-03-11T10:28:10.146Z,95699.30
2019-03-11T10:30:58.726Z,95710.89
2019-03-11T10:33:47.763Z,95717.78
2019-03-11T10:36:36.444Z,95714.41
2019-03-11T10:39:24.788Z,95729.77
2019-03-11T10:42:13.509Z,95740.15
2019-03-11T10:45:01.967Z,95735.42
2019-03-11T10:47:50.792Z,95737.98
2019-03-11T10:50:39.543Z,95743.19
2019-03-11T10:53:27.793Z,95741.58
2019-03-11T10:56:16.757Z,95750.09
2019-03-11T10:59:05.748Z,95745.43
2019-03-11T11:01:54.530Z,95760.09
2019-03-11T11:04:42.796Z,95750.88
2019-03-11T11:07:31.142Z,95746.87
2019-03-11T11:10:20.039Z,95736.73
2019-03-11T11:13:08.831Z,95734.77
2019-03-11T11:15:57.614Z,95726.90
2019-03-11T11:18:46.206Z,95727.41
2019-03-11T11:21:34.343Z,95728.67
2019-03-11T11:24:23.157Z,95732.11
2019-03-11T11:27:11.560Z,95719.34
2019-03-11T11:30:00.744Z,95714.72
2019-03-11T11:32:49.940Z,95718.28
2019-03-11T11:35:38.332Z,95717.48
2019-03-11T11:38:27.202Z,95715.28
2019-03-11T11:41:16.735Z,95710.61
2019-03-11T11:44:05.157Z,95716.59
2019-03-11T11:46:53.783Z,95715.72
2019-03-11T11:49:42.619Z,95708.03
2019-03-11T11:52:31.386Z,95714.52
2019-03-11T11:55:21.271Z,95711.07
2019-03-11T11:58:09.950Z,95709.36
2019-03-11T12:00:58.720Z,95701.98
2019-03-11T12:03:47.667Z,95689.95
2019-03-11T12:06:36.455Z,95692.98
2019-03-11T12:09:24.568Z,95696.85
2019-03-11T12:12:13.309Z,95693.42
2019-03-11T12:15:02.067Z,95695.97
2019-03-11T12:17:50.904Z,95688.70
2019-03-11T12:20:39.562Z,95678.03
2019-03-11T12:23:28.034Z,95683.20
2019-03-11T12:26:16.853Z,95692.66
2019-03-11T12:29:05.663Z,95676.80
2019-03-11T12:31:54.028Z,95678.58
2019-03-11T12:34:42.112Z,95682.47
2019-03-11T12:37:30.431Z,95675.17
2019-03-11T12:40:19.486Z,95674.72
2019-03-11T12:43:08.692Z,95678.19
2019-03-11T12:45:57.374Z,95675.14
2019-03-11T12:48:45.596Z,95662.67
2019-03-11T12:51:34.154Z,95666.91
2019-03-11T12:54:23.203Z,95660.42
2019-03-11T12:57:11.286Z,95663.87
2019-03-11T12:59:59.642Z,95667.34
2019-03-11T13:02:48.733Z,95664.80
2019-03-11T13:05:37.542Z,95673.42
2019-03-11T13:08:26.477Z,95649.34
2019-03-11T13:11:14.542Z,95655.34
2019-03-11T13:14:03.297Z,95654.86
2019-03-11T13:16:52.180Z,95660.05
2019-03-11T13:19:41.351Z,95654.44
2019-03-11T13:22:30.182Z,95656.59
2019-03-11T13:25:19.078Z,95650.09
2019-03-11T13:28:07.925Z,95653.05
2019-03-11T13:30:56.815Z,95659.39
2019-03-11T13:33:45.201Z,95656.36
2019-03-11T13:36:33.806Z,95661.92
2019-03-11T13:39:22.504Z,95664.66
2019-03-11T13:42:10.695Z,95668.12
2019-03-11T13:44:59.105Z,95672.03
2019-03-11T13:47:48.037Z,95684.52
2019-03-11T13:50:36.700Z,95684.95
2019-03-11T13:53:25.434Z,95696.17
2019-03-11T13:56:13.722Z,95709.09
2019-03-11T13:59:02.766Z,95702.66
2019-03-11T14:01:51.399Z,95716.87
2019-03-11T14:04:41.568Z,95732.77
2019-03-11T14:07:29.531Z,95735.71
2019-03-11T14:10:17.949Z,95746.44
2019-03-11T14:13:06.564Z,95734.36
2019-03-11T14:15:57.068Z,95733.45
2019-03-11T14:18:46.010Z,95733.91
2019-03-11T14:21:34.996Z,95746.44
2019-03-11T14:24:23.389Z,95739.61
2019-03-11T14:27:11.843Z,95746.54
2019-03-11T14:30:00.380Z,95754.28
2019-03-11T14:32:49.081Z,95744.84
2019-03-11T14:35:37.216Z,95749.13
2019-03-11T14:38:26.309Z,95764.16
2019-03-11T14:41:15.326Z,95749.50
2019-03-11T14:44:03.987Z,95762.86
2019-03-11T14:46:52.730Z,95757.70
2019-03-11T14:49:41.364Z,95766.25
2019-03-11T14:52:29.802Z,95783.05
2019-03-11T14:55:19.118Z,95778.77
2019-03-11T14:58:08.030Z,95782.66
2019-03-11T15:00:57.316Z,95773.18
2019-03-11T15:03:46.227Z,95770.09
2019-03-11T15:06:35.097Z,95768.02
2019-03-11T15:09:23.858Z,95763.30
2019-03-11T15:12:12.970Z,95781.39
2019-03-11T15:15:01.743Z,95781.38
2019-03-11T15:17:50.327Z,95787.81
2019-03-11T15:20:38.279Z,95795.48
2019-03-11T15:23:26.859Z,95813.94
2019-03-11T15:26:24.666Z,95829.28
2019-03-11T15:29:05.818Z,95829.95
2019-03-11T15:31:57.396Z,95849.13
2019-03-11T15:34:45.515Z,95867.77
2019-03-11T15:37:34.269Z,95869.17
2019-03-11T15:40:22.724Z,95891.15
2019-03-11T15:43:11.374Z,95869.09
2019-03-11T15:46:00.037Z,95848.88
2019-03-11T15:48:48.506Z,95842.92
2019-03-11T15:51:37.127Z,95816.87
2019-03-11T15:54:25.750Z,95802.45
2019-03-11T15:57:14.792Z,95829.24
2019-03-11T16:00:03.694Z,95820.30
2019-03-11T16:02:53.087Z,95818.11
2019-03-11T16:05:41.285Z,95825.42
2019-03-11T16:08:30.055Z,95842.10
2019-03-11T16:11:18.789Z,95868.70
2019-03-11T16:14:07.270Z,95884.01
2019-03-11T16:16:56.113Z,95887.13
2019-03-11T16:19:44.605Z,95883.09
2019-03-11T16:22:33.157Z,95885.84
2019-03-11T16:25:22.055Z,95901.48
2019-03-11T16:28:11.068Z,95908.94
2019-03-11T16:31:00.397Z,95913.14
2019-03-11T16:33:49.433Z,95906.38
2019-03-11T16:36:38.104Z,95899.51
2019-03-11T16:39:26.635Z,95904.28
2019-03-11T16:42:15.113Z,95912.60
2019-03-11T16:45:04.852Z,95903.77
2019-03-11T16:47:53.746Z,95901.64
2019-03-11T16:50:42.113Z,95898.20
2019-03-11T16:53:34.063Z,95901.97
2019-03-11T16:56:22.824Z,95902.30
2019-03-11T16:59:11.849Z,95907.83
2019-03-11T17:02:00.914Z,95909.59
2019-03-11T17:04:49.442Z,95902.33
2019-03-11T17:07:38.379Z,95896.39
2019-03-11T17:10:27.626Z,95908.39
2019-03-11T17:13:16.318Z,95917.50
2019-03-11T17:16:05.432Z,95918.79
2019-03-11T17:18:54.291Z,95929.42
2019-03-11T17:21:43.064Z,95932.88
2019-03-11T17:24:32.230Z,95938.37
2019-03-11T17:27:21.398Z,95945.59
2019-03-11T17:30:12.762Z,95957.23
2019-03-11T17:33:01.219Z,95959.84
2019-03-11T17:35:49.654Z,95967.06
2019-03-11T17:38:38.648Z,95967.42
2019-03-11T17:41:27.477Z,95975.53
2019-03-11T17:44:16.077Z,95972.03
2019-03-11T17:47:04.493Z,95982.43
2019-03-11T17:49:53.167Z,95996.56
2019-03-11T17:52:42.043Z,95993.91
2019-03-11T17:55:30.855Z,96005.11
2019-03-11T17:58:19.885Z,96005.51
2019-03-11T18:01:08.946Z,96005.99
2019-03-11T18:03:57.437Z,96024.81
2019-03-11T18:06:46.132Z,96020.03
2019-03-11T18:09:34.602Z,96019.59
2019-03-11T18:12:23.361Z,96021.75
2019-03-11T18:15:12.984Z,96025.52
2019-03-11T18:18:01.490Z,96030.70
2019-03-11T18:20:50.400Z,96037.07
2019-03-11T18:23:39.206Z,96034.16
2019-03-11T18:26:28.469Z,96041.02
2019-03-11T18:29:16.903Z,96040.63
2019-03-11T18:32:06.083Z,96035.48
2019-03-11T18:34:54.700Z,96043.19
2019-03-11T18:37:43.654Z,96044.47
2019-03-11T18:40:32.707Z,96053.81
2019-03-11T18:43:21.846Z,96062.36
2019-03-11T18:46:10.542Z,96065.77
2019-03-11T18:48:59.208Z,96053.06
2019-03-11T18:51:47.496Z,96050.14
2019-03-11T18:54:36.986Z,96057.77
2019-03-11T18:57:26.339Z,96055.14
2019-03-11T19:00:17.925Z,96062.40
2019-03-11T19:03:07.399Z,96067.55
2019-03-11T19:05:56.427Z,96072.58
2019-03-11T19:08:45.280Z,96064.48
2019-03-11T19:11:34.190Z,96067.05
2019-03-11T19:14:23.244Z,96061.52
2019-03-11T19:17:12.407Z,96064.03
2019-03-11T19:20:04.606Z,96070.00
2019-03-11T19:22:53.765Z,96076.42
2019-03-11T19:25:42.501Z,96067.44
2019-03-11T19:28:31.538Z,96070.95
2019-03-11T19:31:22.422Z,96080.28
2019-03-11T19:34:11.621Z,96067.05
2019-03-11T19:37:00.818Z,96085.47
2019-03-11T19:39:50.176Z,96083.34
2019-03-11T19:42:39.227Z,96087.19
2019-03-11T19:45:27.929Z,96092.34
2019-03-11T19:48:16.930Z,96090.20
2019-03-11T19:51:05.830Z,96086.20
2019-03-11T19:53:55.152Z,96086.27
2019-03-11T19:56:43.916Z,96087.00
2019-03-11T19:59:32.736Z,96082.80
2019-03-11T20:02:21.513Z,96082.30
2019-03-11T20:05:12.071Z,96086.05
2019-03-11T20:08:01.000Z,96090.41
2019-03-11T20:10:50.055Z,96090.84
2019-03-11T20:13:39.301Z,96085.31
2019-03-11T20:16:28.172Z,96092.19
2019-03-11T20:19:16.567Z,96089.17
2019-03-11T20:22:05.644Z,96099.10
2019-03-11T20:24:54.672Z,96102.45
2019-03-11T20:27:46.715Z,96102.95
2019-03-11T20:30:35.946Z,96098.75
2019-03-11T20:33:25.038Z,96094.90
2019-03-11T20:36:20.511Z,96096.97
2019-03-11T20:39:05.329Z,96093.63
2019-03-11T20:41:54.170Z,96101.77
2019-03-11T20:44:42.801Z,96094.91
2019-03-11T20:47:32.305Z,96093.66
2019-03-11T20:50:21.776Z,96085.13
2019-03-11T20:53:10.836Z,96093.27
2019-03-11T20:55:59.730Z,96102.66
2019-03-11T20:58:48.842Z,96103.50
2019-03-11T21:01:38.088Z,96115.95
2019-03-11T21:04:27.531Z,96108.28
2019-03-11T21:07:16.610Z,96113.42
2019-03-11T21:10:06.575Z,96110.06
2019-03-11T21:12:56.037Z,96114.77
2019-03-11T21:15:44.952Z,96119.41
2019-03-11T21:18:36.606Z,96115.99
2019-03-11T21:21:25.700Z,96120.64
2019-03-11T21:24:15.051Z,96122.87
2019-03-11T21:27:03.803Z,96110.52
2019-03-11T21:29:53.195Z,96123.36
2019-03-11T21:32:41.532Z,96114.81
2019-03-11T21:35:30.232Z,96117.88
2019-03-11T21:38:19.218Z,96125.18
2019-03-11T21:41:08.408Z,96123.05
2019-03-11T21:43:56.928Z,96123.06
2019-03-11T21:46:45.859Z,96113.72
2019-03-11T21:49:34.858Z,96111.64
2019-03-11T21:52:23.403Z,96114.66
2019-03-11T21:55:12.078Z,96103.98
2019-03-11T21:58:12.510Z,96119.94
2019-03-11T22:00:50.670Z,96115.34
2019-03-11T22:03:39.805Z,96112.77
2019-03-11T22:06:30.670Z,96105.11
2019-03-11T22:09:18.790Z,96112.48
2019-03-11T22:12:10.400Z,96111.28
2019-03-11T22:14:57.436Z,96108.30
2019-03-11T22:17:46.132Z,96110.97
2019-03-11T22:20:34.610Z,96110.17
2019-03-11T22:23:23.805Z,96121.79
2019-03-11T22:26:12.843Z,96112.39
2019-03-11T22:29:02.225Z,96110.26
2019-03-11T22:31:51.200Z,96110.70
2019-03-11T22:34:39.956Z,96115.93
2019-03-11T22:37:29.069Z,96128.83
2019-03-11T22:40:18.116Z,96115.17
2019-03-11T22:43:07.567Z,96126.70
2019-03-11T22:45:56.643Z,96125.06
2019-03-11T22:48:45.767Z,96126.43
2019-03-11T22:51:34.708Z,96120.03
2019-03-11T22:54:23.553Z,96120.52
2019-03-11T22:57:12.635Z,96123.09
2019-03-11T23:00:01.015Z,96124.34
2019-03-11T23:02:50.456Z,96121.77
2019-03-11T23:05:38.920Z,96133.38
2019-03-11T23:08:27.901Z,96128.69
2019-03-11T23:11:17.065Z,96129.97
2019-03-11T23:14:05.878Z,96132.55
2019-03-11T23:16:55.001Z,96139.86
2019-03-11T23:19:43.996Z,96141.06
2019-03-11T23:22:32.868Z,96130.38
2019-03-11T23:25:21.626Z,96124.34
2019-03-11T23:28:10.456Z,96138.53
2019-03-11T23:30:59.078Z,96123.98
2019-03-11T23:33:48.159Z,96131.70
2019-03-11T23:36:37.180Z,96138.53
2019-03-11T23:39:26.177Z,96134.23
2019-03-11T23:42:15.601Z,96128.24
2019-03-11T23:45:04.674Z,96127.44
2019-03-11T23:47:53.658Z,96154.01
2019-03-11T23:50:42.624Z,96144.59
2019-03-11T23:53:30.817Z,96133.02
2019-03-11T23:56:20.130Z,96134.27
2019-03-11T23:59:08.939Z,96133.87
